sensor_id;sensor_type;location;lat;lon;timestamp;pressure;altitude;pressure_sealevel;temperature;humidity
73748;BME280;62056;52.130;5.428;2023-04-24T00:02:18;100036.28;;;10.27;81.33
73748;BME280;62056;52.130;5.428;2023-04-24T00:04:45;100044.56;;;10.25;81.64
73748;BME280;62056;52.130;5.428;2023-04-24T00:07:12;100048.00;;;10.26;81.38
73748;BME280;62056;52.130;5.428;2023-04-24T00:09:39;100046.13;;;10.26;82.45
73748;BME280;62056;52.130;5.428;2023-04-24T00:12:06;100060.03;;;10.23;81.48
73748;BME280;62056;52.130;5.428;2023-04-24T00:14:33;100046.38;;;10.16;81.99
73748;BME280;62056;52.130;5.428;2023-04-24T00:17:01;100054.66;;;10.15;82.12
73748;BME280;62056;52.130;5.428;2023-04-24T00:19:31;100056.50;;;10.14;81.90
73748;BME280;62056;52.130;5.428;2023-04-24T00:21:58;100058.88;;;10.16;81.55
73748;BME280;62056;52.130;5.428;2023-04-24T00:24:24;100070.59;;;10.15;82.25
73748;BME280;62056;52.130;5.428;2023-04-24T00:26:51;100068.03;;;10.09;81.61
73748;BME280;62056;52.130;5.428;2023-04-24T00:29:17;100079.44;;;10.10;82.52
73748;BME280;62056;52.130;5.428;2023-04-24T00:31:44;100071.00;;;10.08;81.60
73748;BME280;62056;52.130;5.428;2023-04-24T00:34:11;100084.59;;;10.06;81.73
73748;BME280;62056;52.130;5.428;2023-04-24T00:36:38;100069.72;;;10.05;82.38
73748;BME280;62056;52.130;5.428;2023-04-24T00:39:06;100063.94;;;10.03;82.12
73748;BME280;62056;52.130;5.428;2023-04-24T00:41:35;100082.53;;;10.03;81.94
73748;BME280;62056;52.130;5.428;2023-04-24T00:44:01;100071.22;;;9.98;81.62
73748;BME280;62056;52.130;5.428;2023-04-24T00:46:28;100073.72;;;9.94;81.78
73748;BME280;62056;52.130;5.428;2023-04-24T00:48:56;100069.00;;;9.91;82.69
73748;BME280;62056;52.130;5.428;2023-04-24T00:51:22;100077.25;;;9.89;82.15
73748;BME280;62056;52.130;5.428;2023-04-24T00:53:50;100084.44;;;9.89;82.55
73748;BME280;62056;52.130;5.428;2023-04-24T00:56:18;100085.81;;;9.86;82.34
73748;BME280;62056;52.130;5.428;2023-04-24T00:58:45;100090.03;;;9.87;83.84
73748;BME280;62056;52.130;5.428;2023-04-24T01:01:12;100091.13;;;9.86;82.63
73748;BME280;62056;52.130;5.428;2023-04-24T01:03:40;100088.19;;;9.88;83.90
73748;BME280;62056;52.130;5.428;2023-04-24T01:06:07;100088.34;;;9.91;83.19
73748;BME280;62056;52.130;5.428;2023-04-24T01:08:36;100091.50;;;9.93;83.32
73748;BME280;62056;52.130;5.428;2023-04-24T01:11:04;100098.69;;;9.93;82.76
73748;BME280;62056;52.130;5.428;2023-04-24T01:13:32;100095.06;;;9.89;82.41
73748;BME280;62056;52.130;5.428;2023-04-24T01:16:00;100099.59;;;9.88;83.00
73748;BME280;62056;52.130;5.428;2023-04-24T01:18:27;100098.50;;;9.89;83.95
73748;BME280;62056;52.130;5.428;2023-04-24T01:20:57;100103.81;;;9.89;82.95
73748;BME280;62056;52.130;5.428;2023-04-24T01:23:25;100102.72;;;9.90;82.66
73748;BME280;62056;52.130;5.428;2023-04-24T01:25:52;100107.25;;;9.90;82.77
73748;BME280;62056;52.130;5.428;2023-04-24T01:28:19;100100.84;;;9.91;82.23
73748;BME280;62056;52.130;5.428;2023-04-24T01:30:46;100104.78;;;9.93;84.37
73748;BME280;62056;52.130;5.428;2023-04-24T01:33:13;100106.38;;;9.95;83.23
73748;BME280;62056;52.130;5.428;2023-04-24T01:35:40;100099.47;;;9.93;82.72
73748;BME280;62056;52.130;5.428;2023-04-24T01:38:06;100108.53;;;9.92;83.19
73748;BME280;62056;52.130;5.428;2023-04-24T01:40:33;100102.72;;;9.90;82.83
73748;BME280;62056;52.130;5.428;2023-04-24T01:43:00;100107.75;;;9.92;82.82
73748;BME280;62056;52.130;5.428;2023-04-24T01:45:27;100110.41;;;9.92;83.10
73748;BME280;62056;52.130;5.428;2023-04-24T01:47:53;100114.63;;;9.93;82.89
73748;BME280;62056;52.130;5.428;2023-04-24T01:50:20;100113.84;;;9.92;82.81
73748;BME280;62056;52.130;5.428;2023-04-24T01:52:47;100115.09;;;9.95;83.42
73748;BME280;62056;52.130;5.428;2023-04-24T01:55:16;100115.88;;;9.96;83.06
73748;BME280;62056;52.130;5.428;2023-04-24T01:57:43;100122.59;;;9.93;83.18
73748;BME280;62056;52.130;5.428;2023-04-24T02:00:10;100114.34;;;9.95;83.70
73748;BME280;62056;52.130;5.428;2023-04-24T02:02:39;100115.09;;;9.95;83.32
73748;BME280;62056;52.130;5.428;2023-04-24T02:05:08;100116.69;;;9.96;82.98
73748;BME280;62056;52.130;5.428;2023-04-24T02:07:36;100112.94;;;9.97;83.21
73748;BME280;62056;52.130;5.428;2023-04-24T02:10:03;100121.41;;;9.99;83.77
73748;BME280;62056;52.130;5.428;2023-04-24T02:12:30;100111.06;;;9.98;83.93
73748;BME280;62056;52.130;5.428;2023-04-24T02:14:57;100112.66;;;9.99;83.07
73748;BME280;62056;52.130;5.428;2023-04-24T02:17:24;100119.03;;;9.98;83.03
73748;BME280;62056;52.130;5.428;2023-04-24T02:19:51;100113.72;;;9.98;82.96
73748;BME280;62056;52.130;5.428;2023-04-24T02:22:18;100115.88;;;9.96;82.85
73748;BME280;62056;52.130;5.428;2023-04-24T02:24:44;100115.09;;;9.95;83.72
73748;BME280;62056;52.130;5.428;2023-04-24T02:27:11;100121.81;;;9.92;83.41
73748;BME280;62056;52.130;5.428;2023-04-24T02:29:38;100113.34;;;9.90;83.91
73748;BME280;62056;52.130;5.428;2023-04-24T02:32:04;100117.09;;;9.89;82.94
73748;BME280;62056;52.130;5.428;2023-04-24T02:34:31;100111.00;;;9.89;83.17
73748;BME280;62056;52.130;5.428;2023-04-24T02:36:57;100111.00;;;9.89;83.74
73748;BME280;62056;52.130;5.428;2023-04-24T02:39:24;100117.88;;;9.90;83.57
73748;BME280;62056;52.130;5.428;2023-04-24T02:41:51;100115.53;;;9.88;83.60
73748;BME280;62056;52.130;5.428;2023-04-24T02:44:17;100115.03;;;9.86;83.46
73748;BME280;62056;52.130;5.428;2023-04-24T02:46:44;100125.66;;;9.86;83.90
73748;BME280;62056;52.130;5.428;2023-04-24T02:49:10;100121.63;;;9.89;83.73
73748;BME280;62056;52.130;5.428;2023-04-24T02:51:38;100123.97;;;9.90;84.11
73748;BME280;62056;52.130;5.428;2023-04-24T02:54:08;100116.59;;;9.87;83.81
73748;BME280;62056;52.130;5.428;2023-04-24T02:56:36;100121.13;;;9.87;83.96
73748;BME280;62056;52.130;5.428;2023-04-24T02:59:02;100114.25;;;9.86;83.55
73748;BME280;62056;52.130;5.428;2023-04-24T03:01:29;100119.25;;;9.87;83.92
73748;BME280;62056;52.130;5.428;2023-04-24T03:03:56;100105.97;;;9.87;83.73
73748;BME280;62056;52.130;5.428;2023-04-24T03:06:24;100107.84;;;9.87;83.59
73748;BME280;62056;52.130;5.428;2023-04-24T03:08:53;100118.47;;;9.87;83.91
73748;BME280;62056;52.130;5.428;2023-04-24T03:11:20;100114.25;;;9.86;83.41
73748;BME280;62056;52.130;5.428;2023-04-24T03:13:47;100116.09;;;9.85;83.83
73748;BME280;62056;52.130;5.428;2023-04-24T03:16:14;100116.44;;;9.84;83.92
73748;BME280;62056;52.130;5.428;2023-04-24T03:18:41;100116.59;;;9.87;84.06
73748;BME280;62056;52.130;5.428;2023-04-24T03:21:07;100114.75;;;9.88;85.07
73748;BME280;62056;52.130;5.428;2023-04-24T03:23:35;100117.69;;;9.86;83.52
73748;BME280;62056;52.130;5.428;2023-04-24T03:26:01;100120.84;;;9.88;84.12
73748;BME280;62056;52.130;5.428;2023-04-24T03:28:28;100109.13;;;9.89;83.91
73748;BME280;62056;52.130;5.428;2023-04-24T03:30:55;100118.19;;;9.88;84.09
73748;BME280;62056;52.130;5.428;2023-04-24T03:33:22;100121.13;;;9.87;83.61
73748;BME280;62056;52.130;5.428;2023-04-24T03:35:48;100125.47;;;9.83;83.54
73748;BME280;62056;52.130;5.428;2023-04-24T03:38:15;100124.69;;;9.82;83.91
73748;BME280;62056;52.130;5.428;2023-04-24T03:40:41;100129.50;;;9.80;84.03
73748;BME280;62056;52.130;5.428;2023-04-24T03:43:08;100132.16;;;9.80;83.95
73748;BME280;62056;52.130;5.428;2023-04-24T03:45:34;100123.41;;;9.80;84.24
73748;BME280;62056;52.130;5.428;2023-04-24T03:48:01;100117.81;;;9.81;84.27
73748;BME280;62056;52.130;5.428;2023-04-24T03:50:28;100122.81;;;9.83;84.51
73748;BME280;62056;52.130;5.428;2023-04-24T03:52:55;100113.00;;;9.83;84.46
73748;BME280;62056;52.130;5.428;2023-04-24T03:55:22;100126.28;;;9.83;83.76
73748;BME280;62056;52.130;5.428;2023-04-24T03:57:48;100123.41;;;9.80;83.83
73748;BME280;62056;52.130;5.428;2023-04-24T04:00:15;100121.81;;;9.79;84.33
73748;BME280;62056;52.130;5.428;2023-04-24T04:02:42;100123.69;;;9.78;83.81
73748;BME280;62056;52.130;5.428;2023-04-24T04:05:08;100135.41;;;9.77;83.90
73748;BME280;62056;52.130;5.428;2023-04-24T04:07:35;100135.22;;;9.73;83.88
73748;BME280;62056;52.130;5.428;2023-04-24T04:10:02;100140.03;;;9.71;84.09
73748;BME280;62056;52.130;5.428;2023-04-24T04:12:29;100140.63;;;9.68;84.05
73748;BME280;62056;52.130;5.428;2023-04-24T04:14:56;100141.72;;;9.67;84.44
73748;BME280;62056;52.130;5.428;2023-04-24T04:17:23;100140.13;;;9.66;83.92
73748;BME280;62056;52.130;5.428;2023-04-24T04:19:49;100151.84;;;9.65;84.62
73748;BME280;62056;52.130;5.428;2023-04-24T04:22:17;100144.47;;;9.62;84.12
73748;BME280;62056;52.130;5.428;2023-04-24T04:24:43;100144.16;;;9.64;84.10
73748;BME280;62056;52.130;5.428;2023-04-24T04:27:10;100145.28;;;9.63;84.92
73748;BME280;62056;52.130;5.428;2023-04-24T04:29:37;100148.41;;;9.65;84.85
73748;BME280;62056;52.130;5.428;2023-04-24T04:32:03;100152.06;;;9.69;84.47
73748;BME280;62056;52.130;5.428;2023-04-24T04:34:30;100147.81;;;9.68;83.68
73748;BME280;62056;52.130;5.428;2023-04-24T04:36:57;100153.31;;;9.71;84.46
73748;BME280;62056;52.130;5.428;2023-04-24T04:39:27;100160.19;;;9.72;84.58
73748;BME280;62056;52.130;5.428;2023-04-24T04:41:54;100168.97;;;9.73;84.03
73748;BME280;62056;52.130;5.428;2023-04-24T04:44:21;100163.94;;;9.71;84.51
73748;BME280;62056;52.130;5.428;2023-04-24T04:46:48;100173.94;;;9.75;84.64
73748;BME280;62056;52.130;5.428;2023-04-24T04:49:15;100184.28;;;9.76;84.33
73748;BME280;62056;52.130;5.428;2023-04-24T04:51:43;100180.56;;;9.77;84.56
73748;BME280;62056;52.130;5.428;2023-04-24T04:54:09;100181.34;;;9.78;83.94
73748;BME280;62056;52.130;5.428;2023-04-24T04:56:36;100179.47;;;9.78;84.71
73748;BME280;62056;52.130;5.428;2023-04-24T04:59:02;100178.69;;;9.78;84.40
73748;BME280;62056;52.130;5.428;2023-04-24T05:01:29;100185.88;;;9.77;83.92
73748;BME280;62056;52.130;5.428;2023-04-24T05:03:56;100188.53;;;9.77;85.04
73748;BME280;62056;52.130;5.428;2023-04-24T05:06:23;100189.31;;;9.78;84.63
73748;BME280;62056;52.130;5.428;2023-04-24T05:08:50;100197.56;;;9.76;84.09
73748;BME280;62056;52.130;5.428;2023-04-24T05:11:19;100210.63;;;9.72;84.40
73748;BME280;62056;52.130;5.428;2023-04-24T05:13:45;100207.50;;;9.70;84.26
73748;BME280;62056;52.130;5.428;2023-04-24T05:16:12;100207.81;;;9.69;84.48
73748;BME280;62056;52.130;5.428;2023-04-24T05:18:38;100214.19;;;9.68;84.43
73748;BME280;62056;52.130;5.428;2023-04-24T05:21:05;100214.78;;;9.65;85.30
73748;BME280;62056;52.130;5.428;2023-04-24T05:23:32;100221.38;;;9.67;84.94
73748;BME280;62056;52.130;5.428;2023-04-24T05:25:58;100222.63;;;9.70;84.90
73748;BME280;62056;52.130;5.428;2023-04-24T05:28:25;100219.97;;;9.70;84.85
73748;BME280;62056;52.130;5.428;2023-04-24T05:30:55;100229.03;;;9.69;85.35
73748;BME280;62056;52.130;5.428;2023-04-24T05:33:22;100233.53;;;9.68;85.72
73748;BME280;62056;52.130;5.428;2023-04-24T05:35:49;100234.94;;;9.66;84.87
73748;BME280;62056;52.130;5.428;2023-04-24T05:38:15;100244.28;;;9.63;85.36
73748;BME280;62056;52.130;5.428;2023-04-24T05:40:45;100244.56;;;9.62;85.90
73748;BME280;62056;52.130;5.428;2023-04-24T05:43:12;100251.75;;;9.61;85.99
73748;BME280;62056;52.130;5.428;2023-04-24T05:45:39;100256.56;;;9.59;85.21
73748;BME280;62056;52.130;5.428;2023-04-24T05:48:06;100271.22;;;9.57;85.81
73748;BME280;62056;52.130;5.428;2023-04-24T05:50:33;100262.75;;;9.55;85.97
73748;BME280;62056;52.130;5.428;2023-04-24T05:53:02;100260.88;;;9.55;85.49
73748;BME280;62056;52.130;5.428;2023-04-24T05:55:30;100272.28;;;9.56;85.43
73748;BME280;62056;52.130;5.428;2023-04-24T05:57:57;100275.22;;;9.54;85.45
73748;BME280;62056;52.130;5.428;2023-04-24T06:00:24;100284.88;;;9.50;85.55
73748;BME280;62056;52.130;5.428;2023-04-24T06:02:51;100286.53;;;9.46;86.11
73748;BME280;62056;52.130;5.428;2023-04-24T06:05:19;100290.53;;;9.43;85.82
73748;BME280;62056;52.130;5.428;2023-04-24T06:07:47;100294.56;;;9.41;86.28
73748;BME280;62056;52.130;5.428;2023-04-24T06:10:14;100295.94;;;9.38;85.70
73748;BME280;62056;52.130;5.428;2023-04-24T06:12:41;100302.63;;;9.36;86.35
73748;BME280;62056;52.130;5.428;2023-04-24T06:15:08;100318.03;;;9.34;86.03
73748;BME280;62056;52.130;5.428;2023-04-24T06:17:35;100309.09;;;9.29;86.10
73748;BME280;62056;52.130;5.428;2023-04-24T06:20:01;100321.84;;;9.27;85.96
73748;BME280;62056;52.130;5.428;2023-04-24T06:22:31;100320.84;;;9.23;86.78
73748;BME280;62056;52.130;5.428;2023-04-24T06:24:57;100323.28;;;9.20;86.02
73748;BME280;62056;52.130;5.428;2023-04-24T06:27:24;100327.03;;;9.19;86.79
73748;BME280;62056;52.130;5.428;2023-04-24T06:29:50;100329.75;;;9.14;86.29
73748;BME280;62056;52.130;5.428;2023-04-24T06:32:24;100345.44;;;9.10;87.04
73748;BME280;62056;52.130;5.428;2023-04-24T06:34:51;100348.09;;;9.10;86.97
73748;BME280;62056;52.130;5.428;2023-04-24T06:37:20;100358.44;;;9.11;88.00
73748;BME280;62056;52.130;5.428;2023-04-24T06:39:46;100352.56;;;9.15;87.88
73748;BME280;62056;52.130;5.428;2023-04-24T06:42:13;100367.09;;;9.17;88.91
73748;BME280;62056;52.130;5.428;2023-04-24T06:44:40;100360.78;;;9.13;89.51
73748;BME280;62056;52.130;5.428;2023-04-24T06:47:08;100373.84;;;9.09;91.31
73748;BME280;62056;52.130;5.428;2023-04-24T06:49:38;100381.16;;;8.99;92.15
73748;BME280;62056;52.130;5.428;2023-04-24T06:52:05;100388.75;;;9.05;91.60
73748;BME280;62056;52.130;5.428;2023-04-24T06:54:32;100394.63;;;9.02;92.88
73748;BME280;62056;52.130;5.428;2023-04-24T06:56:59;100407.81;;;9.07;92.69
73748;BME280;62056;52.130;5.428;2023-04-24T06:59:29;100407.75;;;9.13;92.90
73748;BME280;62056;52.130;5.428;2023-04-24T07:01:57;100408.03;;;9.11;92.60
73748;BME280;62056;52.130;5.428;2023-04-24T07:04:23;100419.66;;;9.15;93.14
73748;BME280;62056;52.130;5.428;2023-04-24T07:06:52;100431.06;;;9.16;93.18
73748;BME280;62056;52.130;5.428;2023-04-24T07:09:22;100419.66;;;9.15;93.74
73748;BME280;62056;52.130;5.428;2023-04-24T07:11:50;100427.63;;;9.15;93.72
73748;BME280;62056;52.130;5.428;2023-04-24T07:14:17;100439.09;;;9.10;93.61
73748;BME280;62056;52.130;5.428;2023-04-24T07:16:44;100438.59;;;9.08;92.80
73748;BME280;62056;52.130;5.428;2023-04-24T07:19:12;100459.50;;;9.10;93.61
73748;BME280;62056;52.130;5.428;2023-04-24T07:21:40;100465.94;;;9.04;93.09
73748;BME280;62056;52.130;5.428;2023-04-24T07:24:07;100467.81;;;9.03;92.87
73748;BME280;62056;52.130;5.428;2023-04-24T07:26:38;100483.06;;;8.93;93.21
73748;BME280;62056;52.130;5.428;2023-04-24T07:29:06;100482.28;;;8.92;93.69
73748;BME280;62056;52.130;5.428;2023-04-24T07:31:33;100491.28;;;8.91;93.76
73748;BME280;62056;52.130;5.428;2023-04-24T07:34:00;100496.16;;;8.84;93.57
73748;BME280;62056;52.130;5.428;2023-04-24T07:36:27;100505.19;;;8.83;93.84
73748;BME280;62056;52.130;5.428;2023-04-24T07:38:55;100507.31;;;8.81;94.39
73748;BME280;62056;52.130;5.428;2023-04-24T07:41:22;100517.66;;;8.82;93.95
73748;BME280;62056;52.130;5.428;2023-04-24T07:43:50;100525.84;;;8.86;94.06
73748;BME280;62056;52.130;5.428;2023-04-24T07:46:21;100528.84;;;8.79;94.29
73748;BME280;62056;52.130;5.428;2023-04-24T07:48:47;100536.38;;;8.67;94.06
73748;BME280;62056;52.130;5.428;2023-04-24T07:51:27;100534.91;;;8.80;94.24
73748;BME280;62056;52.130;5.428;2023-04-24T07:53:58;100545.69;;;8.88;94.72
73748;BME280;62056;52.130;5.428;2023-04-24T07:56:24;100548.41;;;8.83;93.74
73748;BME280;62056;52.130;5.428;2023-04-24T07:58:53;100556.06;;;8.85;94.03
73748;BME280;62056;52.130;5.428;2023-04-24T08:01:19;100557.06;;;8.94;94.00
73748;BME280;62056;52.130;5.428;2023-04-24T08:04:14;100554.28;;;9.04;94.41
73748;BME280;62056;52.130;5.428;2023-04-24T08:07:11;100562.75;;;9.06;94.12
73748;BME280;62056;52.130;5.428;2023-04-24T08:09:39;100564.78;;;9.15;93.98
73748;BME280;62056;52.130;5.428;2023-04-24T08:12:06;100573.25;;;9.17;93.85
73748;BME280;62056;52.130;5.428;2023-04-24T08:15:00;100577.47;;;9.18;93.70
73748;BME280;62056;52.130;5.428;2023-04-24T08:17:32;100594.19;;;8.94;92.61
73748;BME280;62056;52.130;5.428;2023-04-24T08:19:58;100605.81;;;8.98;92.80
73748;BME280;62056;52.130;5.428;2023-04-24T08:22:28;100608.66;;;9.02;93.47
73748;BME280;62056;52.130;5.428;2023-04-24T08:24:55;100609.50;;;8.97;93.14
73748;BME280;62056;52.130;5.428;2023-04-24T08:27:23;100625.16;;;8.99;93.04
73748;BME280;62056;52.130;5.428;2023-04-24T08:29:50;100648.53;;;8.91;93.34
73748;BME280;62056;52.130;5.428;2023-04-24T08:32:17;100641.94;;;8.89;93.24
73748;BME280;62056;52.130;5.428;2023-04-24T08:34:44;100641.91;;;8.94;93.34
73748;BME280;62056;52.130;5.428;2023-04-24T08:37:13;100646.47;;;8.88;93.39
73748;BME280;62056;52.130;5.428;2023-04-24T08:39:39;100652.78;;;8.93;93.41
73748;BME280;62056;52.130;5.428;2023-04-24T08:42:08;100652.78;;;8.93;93.14
73748;BME280;62056;52.130;5.428;2023-04-24T08:44:35;100662.84;;;8.96;92.33
73748;BME280;62056;52.130;5.428;2023-04-24T08:47:02;100662.53;;;9.02;92.59
73748;BME280;62056;52.130;5.428;2023-04-24T08:49:29;100666.75;;;9.03;93.09
73748;BME280;62056;52.130;5.428;2023-04-24T08:51:57;100666.72;;;9.08;92.25
73748;BME280;62056;52.130;5.428;2023-04-24T08:54:53;100677.53;;;9.12;92.68
73748;BME280;62056;52.130;5.428;2023-04-24T08:57:21;100681.47;;;9.20;90.70
73748;BME280;62056;52.130;5.428;2023-04-24T08:59:48;100682.47;;;9.24;92.20
73748;BME280;62056;52.130;5.428;2023-04-24T09:02:16;100684.03;;;9.25;91.09
73748;BME280;62056;52.130;5.428;2023-04-24T09:04:44;100694.56;;;9.35;90.15
73748;BME280;62056;52.130;5.428;2023-04-24T09:07:14;100710.78;;;9.34;89.21
73748;BME280;62056;52.130;5.428;2023-04-24T09:09:41;100697.22;;;9.35;88.20
73748;BME280;62056;52.130;5.428;2023-04-24T09:12:27;100712.41;;;9.29;89.16
73748;BME280;62056;52.130;5.428;2023-04-24T09:15:00;100707.53;;;9.42;88.97
73748;BME280;62056;52.130;5.428;2023-04-24T09:17:30;100714.97;;;9.40;87.16
73748;BME280;62056;52.130;5.428;2023-04-24T09:19:57;100720.91;;;9.56;88.20
73748;BME280;62056;52.130;5.428;2023-04-24T09:22:29;100718.47;;;9.59;88.12
73748;BME280;62056;52.130;5.428;2023-04-24T09:25:05;100723.53;;;9.61;87.43
73748;BME280;62056;52.130;5.428;2023-04-24T09:27:33;100728.41;;;9.72;88.07
73748;BME280;62056;52.130;5.428;2023-04-24T09:30:01;100729.44;;;9.77;85.78
73748;BME280;62056;52.130;5.428;2023-04-24T09:32:28;100733.44;;;9.74;84.17
73748;BME280;62056;52.130;5.428;2023-04-24T09:35:06;100733.47;;;9.98;87.25
73748;BME280;62056;52.130;5.428;2023-04-24T09:37:42;100731.22;;;10.05;84.61
73748;BME280;62056;52.130;5.428;2023-04-24T09:40:16;100740.59;;;10.22;85.60
73748;BME280;62056;52.130;5.428;2023-04-24T09:42:50;100747.69;;;10.31;84.05
73748;BME280;62056;52.130;5.428;2023-04-24T09:45:18;100746.19;;;10.44;84.55
73748;BME280;62056;52.130;5.428;2023-04-24T09:47:44;100748.34;;;10.61;82.60
73748;BME280;62056;52.130;5.428;2023-04-24T09:50:16;100759.19;;;10.65;81.38
73748;BME280;62056;52.130;5.428;2023-04-24T09:52:56;100782.81;;;10.66;81.41
73748;BME280;62056;52.130;5.428;2023-04-24T09:55:24;100778.16;;;10.58;77.80
73748;BME280;62056;52.130;5.428;2023-04-24T09:57:54;100776.72;;;10.47;77.45
73748;BME280;62056;52.130;5.428;2023-04-24T10:00:29;100780.22;;;10.42;78.13
73748;BME280;62056;52.130;5.428;2023-04-24T10:03:00;100777.97;;;10.30;76.93
73748;BME280;62056;52.130;5.428;2023-04-24T10:05:58;100784.03;;;10.36;77.69
73748;BME280;62056;52.130;5.428;2023-04-24T10:08:53;100791.94;;;10.41;77.87
73748;BME280;62056;52.130;5.428;2023-04-24T10:11:20;100786.97;;;10.53;78.00
73748;BME280;62056;52.130;5.428;2023-04-24T10:13:47;100789.28;;;10.60;77.52
73748;BME280;62056;52.130;5.428;2023-04-24T10:16:14;100794.31;;;10.62;75.55
73748;BME280;62056;52.130;5.428;2023-04-24T10:18:41;100798.13;;;10.74;76.75
73748;BME280;62056;52.130;5.428;2023-04-24T10:21:08;100794.63;;;10.79;76.36
73748;BME280;62056;52.130;5.428;2023-04-24T10:24:03;100799.63;;;10.81;74.22
73748;BME280;62056;52.130;5.428;2023-04-24T10:26:31;100792.09;;;10.88;74.80
73748;BME280;62056;52.130;5.428;2023-04-24T10:28:58;100808.84;;;10.88;73.95
73748;BME280;62056;52.130;5.428;2023-04-24T10:31:26;100812.66;;;10.82;73.36
73748;BME280;62056;52.130;5.428;2023-04-24T10:33:54;100805.69;;;10.86;72.67
73748;BME280;62056;52.130;5.428;2023-04-24T10:36:23;100814.03;;;10.80;72.60
73748;BME280;62056;52.130;5.428;2023-04-24T10:38:54;100814.97;;;10.89;74.29
73748;BME280;62056;52.130;5.428;2023-04-24T10:41:25;100815.59;;;11.00;73.04
73748;BME280;62056;52.130;5.428;2023-04-24T10:44:11;100807.88;;;11.17;72.36
73748;BME280;62056;52.130;5.428;2023-04-24T10:46:39;100823.28;;;11.20;72.87
73748;BME280;62056;52.130;5.428;2023-04-24T10:49:07;100823.59;;;11.32;72.78
73748;BME280;62056;52.130;5.428;2023-04-24T10:51:49;100826.00;;;11.34;72.30
73748;BME280;62056;52.130;5.428;2023-04-24T10:54:27;100838.63;;;11.42;71.40
73748;BME280;62056;52.130;5.428;2023-04-24T10:57:27;100836.13;;;11.32;70.05
73748;BME280;62056;52.130;5.428;2023-04-24T11:00:16;100827.88;;;11.33;71.91
73748;BME280;62056;52.130;5.428;2023-04-24T11:02:46;100838.06;;;11.26;72.02
73748;BME280;62056;52.130;5.428;2023-04-24T11:05:20;100842.03;;;11.29;71.25
73748;BME280;62056;52.130;5.428;2023-04-24T11:08:12;100844.28;;;11.22;71.06
73748;BME280;62056;52.130;5.428;2023-04-24T11:10:47;100841.28;;;11.09;70.83
73748;BME280;62056;52.130;5.428;2023-04-24T11:13:25;100856.88;;;11.16;70.88
73748;BME280;62056;52.130;5.428;2023-04-24T11:16:16;100853.78;;;11.09;70.86
73748;BME280;62056;52.130;5.428;2023-04-24T11:18:51;100861.63;;;11.00;70.95
73748;BME280;62056;52.130;5.428;2023-04-24T11:21:21;100881.19;;;10.90;71.98
73748;BME280;62056;52.130;5.428;2023-04-24T11:23:48;100882.06;;;10.86;72.69
73748;BME280;62056;52.130;5.428;2023-04-24T11:26:19;100885.34;;;10.78;73.08
73748;BME280;62056;52.130;5.428;2023-04-24T11:28:48;100884.75;;;10.62;73.81
73748;BME280;62056;52.130;5.428;2023-04-24T11:31:40;100892.22;;;10.60;73.96
73748;BME280;62056;52.130;5.428;2023-04-24T11:34:13;100889.56;;;10.60;74.25
73748;BME280;62056;52.130;5.428;2023-04-24T11:36:46;100884.38;;;10.68;75.26
73748;BME280;62056;52.130;5.428;2023-04-24T11:39:14;100880.03;;;10.78;75.51
73748;BME280;62056;52.130;5.428;2023-04-24T11:41:41;100883.72;;;11.01;75.68
73748;BME280;62056;52.130;5.428;2023-04-24T11:44:09;100883.78;;;11.14;74.52
73748;BME280;62056;52.130;5.428;2023-04-24T11:46:36;100888.16;;;11.24;74.73
73748;BME280;62056;52.130;5.428;2023-04-24T11:49:04;100886.44;;;11.33;74.46
73748;BME280;62056;52.130;5.428;2023-04-24T11:51:32;100888.28;;;11.33;72.64
73748;BME280;62056;52.130;5.428;2023-04-24T11:54:16;100894.34;;;11.39;72.09
73748;BME280;62056;52.130;5.428;2023-04-24T11:56:47;100897.94;;;11.48;70.63
73748;BME280;62056;52.130;5.428;2023-04-24T11:59:14;100904.34;;;11.80;69.89
73748;BME280;62056;52.130;5.428;2023-04-24T12:01:48;100900.97;;;11.74;66.04
73748;BME280;62056;52.130;5.428;2023-04-24T12:04:16;100907.56;;;11.77;68.39
73748;BME280;62056;52.130;5.428;2023-04-24T12:07:02;100916.16;;;11.92;68.65
73748;BME280;62056;52.130;5.428;2023-04-24T12:09:41;100921.31;;;12.03;68.56
73748;BME280;62056;52.130;5.428;2023-04-24T12:12:10;100922.03;;;11.89;67.10
73748;BME280;62056;52.130;5.428;2023-04-24T12:14:53;100927.44;;;11.84;66.74
73748;BME280;62056;52.130;5.428;2023-04-24T12:17:26;100935.38;;;11.89;67.22
73748;BME280;62056;52.130;5.428;2023-04-24T12:20:01;100926.06;;;11.87;63.94
73748;BME280;62056;52.130;5.428;2023-04-24T12:22:47;100934.94;;;11.82;65.63
73748;BME280;62056;52.130;5.428;2023-04-24T12:25:16;100937.69;;;11.77;65.73
73748;BME280;62056;52.130;5.428;2023-04-24T12:27:43;100948.03;;;11.79;64.62
73748;BME280;62056;52.130;5.428;2023-04-24T12:30:14;100941.53;;;11.71;65.30
73748;BME280;62056;52.130;5.428;2023-04-24T12:32:46;100946.50;;;11.59;65.19
73748;BME280;62056;52.130;5.428;2023-04-24T12:35:18;100942.34;;;11.52;65.58
73748;BME280;62056;52.130;5.428;2023-04-24T12:37:46;100950.88;;;11.68;66.21
73748;BME280;62056;52.130;5.428;2023-04-24T12:40:14;100953.69;;;11.77;65.68
73748;BME280;62056;52.130;5.428;2023-04-24T12:42:43;100949.00;;;11.69;63.57
73748;BME280;62056;52.130;5.428;2023-04-24T12:45:11;100966.66;;;11.65;62.99
73748;BME280;62056;52.130;5.428;2023-04-24T12:47:39;100966.94;;;11.63;62.96
73748;BME280;62056;52.130;5.428;2023-04-24T12:50:09;100965.16;;;11.59;62.22
73748;BME280;62056;52.130;5.428;2023-04-24T12:52:36;100970.03;;;11.51;63.40
73748;BME280;62056;52.130;5.428;2023-04-24T12:55:03;100978.59;;;11.48;63.52
73748;BME280;62056;52.130;5.428;2023-04-24T12:57:32;100979.47;;;11.44;63.45
73748;BME280;62056;52.130;5.428;2023-04-24T12:59:59;100978.09;;;11.46;63.26
73748;BME280;62056;52.130;5.428;2023-04-24T13:02:28;100989.97;;;11.35;64.04
73748;BME280;62056;52.130;5.428;2023-04-24T13:04:57;100989.91;;;11.21;66.67
73748;BME280;62056;52.130;5.428;2023-04-24T13:07:24;101005.03;;;11.02;67.86
73748;BME280;62056;52.130;5.428;2023-04-24T13:09:51;101007.34;;;10.60;70.63